LIRL

Latina Air Base

Airport
ICAO code
LIRL
Summary
ICAO Region
EUR
ICAO Territory
Location

Latina, Lazio

Serving
Latina
Elevation
93 ft
Coordinates
41° 32' 32" N , 12° 54' 33" E
KCC
Metar
Observation
LIRL 030755Z 00000KT CAVOK 05/04 Q1027
Station
Latina
Date/Time
2023-02-03 07:55:00
Wind direction
Wind speed
00 kts
Lowest cloud amount
clouds and visibility OK
Temperature
5°C
Dew point
4°C
Humidity
93%
QNH
1027 hPa
Weather condition
n/a

Latina Airport is a military airport located near Latina, a city in the Lazio region of central Italy.

Climatology

Warm mediterranean climate (Köppen climate classification Csa)

Runways

Designator Length Width Surface Rops
12/30 1700 40 ASP No/No

Airport map

Aerial View

SKYbrary Partners:

Safety knowledge contributed by: